Time;durP1;ratioP1;P1;durP2;ratioP2;P2;SDS_P1;SDS_P2;PMS_P1;PMS_P2;Temp;Humidity;BMP_temperature;BMP_pressure;BME280_temperature;BME280_humidity;BME280_pressure;Samples;Min_cycle;Max_cycle;Signal;HPM_P1;HPM_P2
2023/03/03 00:01:47;;;;;;;24.73;11.98;;;;;;;4.42;68.87;100245.94;4961967;28;20058;-90
2023/03/03 00:04:14;;;;;;;22.55;12.02;;;;;;;4.43;68.99;100250.25;4961960;28;20051;-89
2023/03/03 00:06:40;;;;;;;25.77;12.48;;;;;;;4.43;68.53;100247.63;4976469;28;20039;-90
2023/03/03 00:09:26;;;;;;;23.90;11.43;;;;;;;4.23;69.24;100246.13;4924650;28;20397;-89
2023/03/03 00:11:58;;;;;;;28.65;12.65;;;;;;;4.30;68.93;100254.50;4895239;28;20042;-89
2023/03/03 00:14:29;;;;;;;29.17;12.18;;;;;;;4.30;68.29;100255.38;4925935;28;20073;-88
2023/03/03 00:16:56;;;;;;;26.42;12.55;;;;;;;4.26;69.03;100240.69;4961025;28;20050;-89
2023/03/03 00:19:23;;;;;;;25.63;12.07;;;;;;;4.29;68.76;100255.44;4944251;28;20064;-90
2023/03/03 00:21:51;;;;;;;24.48;12.35;;;;;;;4.31;68.48;100249.16;4948388;28;20050;-89
2023/03/03 00:24:21;;;;;;;30.33;12.43;;;;;;;4.24;68.42;100249.59;4946657;28;20142;-89
2023/03/03 00:26:55;;;;;;;27.05;12.98;;;;;;;4.10;68.67;100239.84;4954090;28;20035;-90
2023/03/03 00:29:38;;;;;;;24.13;11.38;;;;;;;3.99;69.22;100248.31;4945823;28;20050;-89
2023/03/03 00:32:13;;;;;;;25.58;12.65;;;;;;;4.06;68.74;100241.78;4941937;28;20049;-91
2023/03/03 00:34:42;;;;;;;25.85;12.73;;;;;;;4.07;68.63;100246.13;4976779;28;20102;-90
2023/03/03 00:37:30;;;;;;;26.48;12.55;;;;;;;4.06;68.51;100249.66;4942195;28;20051;-89
2023/03/03 00:40:22;;;;;;;32.72;12.57;;;;;;;3.95;68.93;100254.66;4950387;28;20053;-90
2023/03/03 00:42:54;;;;;;;23.38;12.32;;;;;;;4.00;68.27;100241.28;4950547;28;20125;-89
2023/03/03 00:45:29;;;;;;;24.90;11.30;;;;;;;3.88;68.74;100248.03;4932507;28;20069;-90
2023/03/03 00:47:57;;;;;;;27.25;11.23;;;;;;;3.91;68.31;100243.47;4980363;28;20393;-90
2023/03/03 00:50:33;;;;;;;24.40;12.00;;;;;;;3.76;68.65;100249.53;4952780;28;20057;-90
2023/03/03 00:53:16;;;;;;;26.73;12.73;;;;;;;3.73;68.88;100257.59;4964380;28;20050;-89
2023/03/03 00:55:43;;;;;;;29.55;12.35;;;;;;;3.85;68.84;100253.47;4928406;28;20105;-89
2023/03/03 00:58:11;;;;;;;35.83;13.52;;;;;;;3.81;68.92;100255.41;4956754;28;20734;-88
2023/03/03 01:00:42;;;;;;;26.20;13.85;;;;;;;3.78;69.00;100254.72;4942532;28;20137;-89
2023/03/03 01:03:14;;;;;;;30.25;12.18;;;;;;;3.67;69.58;100258.78;4951695;28;20378;-88
2023/03/03 01:05:41;;;;;;;25.55;12.23;;;;;;;3.73;69.48;100254.13;4961109;28;20070;-87
2023/03/03 01:08:08;;;;;;;29.77;12.98;;;;;;;3.75;69.11;100249.66;4964128;28;20527;-89
2023/03/03 01:10:40;;;;;;;25.25;12.25;;;;;;;3.65;69.13;100250.13;4949351;28;20050;-89
2023/03/03 01:13:08;;;;;;;24.35;12.23;;;;;;;3.72;69.44;100250.66;4958659;28;20126;-89
2023/03/03 01:15:35;;;;;;;25.90;13.38;;;;;;;3.71;69.10;100243.69;4934128;28;20042;-89
2023/03/03 01:18:01;;;;;;;29.67;12.82;;;;;;;3.69;69.05;100237.69;4931462;28;20097;-89
2023/03/03 01:20:28;;;;;;;27.02;12.85;;;;;;;3.69;69.28;100243.78;4959041;28;20042;-89
2023/03/03 01:22:55;;;;;;;26.58;12.10;;;;;;;3.79;69.33;100241.53;4972436;28;20058;-89
2023/03/03 01:25:22;;;;;;;27.98;12.57;;;;;;;3.63;69.38;100238.00;4962396;28;20050;-88
2023/03/03 01:27:48;;;;;;;25.35;12.00;;;;;;;3.69;69.19;100242.94;4947685;28;20066;-89
2023/03/03 01:30:16;;;;;;;26.05;13.43;;;;;;;3.77;68.47;100243.38;4932577;28;20395;-89
2023/03/03 01:32:43;;;;;;;27.67;12.20;;;;;;;3.73;68.67;100238.38;4948200;28;20061;-89
2023/03/03 01:35:10;;;;;;;26.38;12.75;;;;;;;3.69;68.70;100235.91;4957616;28;20046;-88
2023/03/03 01:37:37;;;;;;;22.33;12.32;;;;;;;3.68;68.65;100236.81;4944209;28;20042;-89
2023/03/03 01:40:05;;;;;;;29.50;13.10;;;;;;;3.69;68.84;100235.06;4950078;28;20498;-88
2023/03/03 01:42:32;;;;;;;25.17;12.00;;;;;;;3.62;68.78;100229.28;4958330;28;20051;-90
2023/03/03 01:45:46;;;;;;;22.17;11.57;;;;;;;3.44;69.04;100238.16;4938746;28;20038;-90
2023/03/03 01:48:17;;;;;;;26.33;12.95;;;;;;;3.55;68.85;100241.03;4895572;28;20046;-89
2023/03/03 01:51:10;;;;;;;25.17;11.65;;;;;;;3.42;69.02;100248.72;4913725;28;20130;-90
2023/03/03 01:54:04;;;;;;;26.48;13.13;;;;;;;3.43;69.24;100241.69;4898043;28;20525;-90
2023/03/03 01:56:31;;;;;;;25.42;11.55;;;;;;;3.43;68.91;100244.31;4929004;28;20042;-90
2023/03/03 01:59:05;;;;;;;24.73;11.50;;;;;;;3.31;68.99;100232.69;4958855;28;20490;-89
2023/03/03 02:01:32;;;;;;;23.13;11.48;;;;;;;3.30;69.29;100238.00;4963750;28;20070;-91
2023/03/03 02:04:00;;;;;;;27.77;12.25;;;;;;;3.30;69.21;100236.22;4949076;28;20105;-90
2023/03/03 02:06:31;;;;;;;24.98;12.70;;;;;;;3.33;69.02;100236.06;4959363;28;20498;-90
2023/03/03 02:09:13;;;;;;;24.70;12.02;;;;;;;3.34;68.97;100235.16;4963531;28;20482;-91
2023/03/03 02:11:42;;;;;;;20.17;11.55;;;;;;;3.35;68.94;100228.13;4960312;28;20395;-90
2023/03/03 02:14:10;;;;;;;26.35;12.55;;;;;;;3.33;68.88;100229.97;4955495;28;20070;-90
2023/03/03 02:16:42;;;;;;;25.60;11.50;;;;;;;3.32;68.88;100236.16;4945167;28;20054;-89
2023/03/03 02:19:24;;;;;;;24.27;11.95;;;;;;;3.26;68.69;100232.06;4948599;28;20050;-91
2023/03/03 02:21:51;;;;;;;26.83;11.65;;;;;;;3.22;68.91;100228.75;4940608;28;20055;-88
2023/03/03 02:24:37;;;;;;;24.95;11.27;;;;;;;3.10;69.09;100229.38;4970108;28;20499;-89
2023/03/03 02:27:04;;;;;;;25.83;10.82;;;;;;;3.14;69.22;100232.69;4932095;28;20498;-90
2023/03/03 02:29:31;;;;;;;19.10;10.68;;;;;;;3.05;68.99;100239.25;4950127;28;20550;-91
2023/03/03 02:31:58;;;;;;;25.98;11.25;;;;;;;3.08;69.30;100235.63;4930937;28;20049;-91
2023/03/03 02:34:25;;;;;;;23.67;10.93;;;;;;;3.24;68.71;100239.19;4953910;28;20550;-90
2023/03/03 02:36:52;;;;;;;23.40;11.25;;;;;;;3.11;68.83;100238.13;4955663;28;20046;-90
2023/03/03 02:39:23;;;;;;;23.55;10.75;;;;;;;3.04;68.81;100243.66;4951661;28;20400;-91
2023/03/03 02:41:54;;;;;;;28.20;11.80;;;;;;;3.10;68.84;100241.66;4958705;28;20502;-90
2023/03/03 02:44:27;;;;;;;24.67;11.65;;;;;;;3.02;68.64;100244.66;4956108;28;20545;-91
2023/03/03 02:46:54;;;;;;;19.63;10.05;;;;;;;3.07;68.69;100247.06;4931706;28;21723;-91
2023/03/03 02:49:26;;;;;;;20.75;10.68;;;;;;;2.97;68.30;100242.25;4931716;28;20576;-90
2023/03/03 02:51:53;;;;;;;25.05;11.23;;;;;;;2.99;68.46;100237.78;4972593;28;20125;-91
2023/03/03 02:54:22;;;;;;;22.70;11.57;;;;;;;2.90;68.77;100240.03;4963007;28;20053;-91
2023/03/03 02:56:49;;;;;;;23.73;11.07;;;;;;;2.92;68.31;100241.66;4958520;28;20479;-90
2023/03/03 02:59:16;;;;;;;20.40;10.95;;;;;;;2.90;68.38;100240.03;4931159;28;20046;-89
2023/03/03 03:01:47;;;;;;;23.38;11.20;;;;;;;2.82;68.81;100246.53;4944621;28;20046;-90
2023/03/03 03:04:19;;;;;;;23.27;10.80;;;;;;;2.83;68.54;100247.38;4932874;28;20101;-91
2023/03/03 03:06:48;;;;;;;19.35;9.77;;;;;;;2.84;68.55;100249.06;4975498;28;20047;-90
2023/03/03 03:09:17;;;;;;;21.02;11.05;;;;;;;2.73;68.83;100244.34;4945779;28;20129;-90
2023/03/03 03:11:45;;;;;;;23.88;10.80;;;;;;;2.67;69.03;100242.06;4938068;28;20049;-90
2023/03/03 03:14:14;;;;;;;20.52;11.00;;;;;;;2.76;68.68;100245.97;4934706;28;20051;-90
2023/03/03 03:16:42;;;;;;;24.10;11.18;;;;;;;2.63;69.33;100250.97;4950840;28;20096;-91
2023/03/03 03:19:09;;;;;;;24.20;11.93;;;;;;;2.61;69.29;100244.94;4962987;28;20505;-91
2023/03/03 03:21:37;;;;;;;25.02;11.88;;;;;;;2.63;69.39;100242.25;4959632;28;20450;-91
2023/03/03 03:24:06;;;;;;;23.02;11.30;;;;;;;2.60;69.29;100238.88;4942726;28;20077;-90
2023/03/03 03:26:36;;;;;;;25.73;10.93;;;;;;;2.65;69.58;100251.75;4943627;28;20483;-89
2023/03/03 03:29:03;;;;;;;22.20;11.60;;;;;;;2.66;69.51;100258.69;4944290;28;20077;-90
2023/03/03 03:31:30;;;;;;;23.83;11.25;;;;;;;2.70;69.25;100256.78;4944985;28;20057;-89
2023/03/03 03:33:59;;;;;;;21.13;10.48;;;;;;;2.78;69.05;100260.72;4950479;28;20101;-89
2023/03/03 03:36:27;;;;;;;22.98;11.40;;;;;;;2.70;69.93;100260.25;4930477;28;20053;-90
2023/03/03 03:38:54;;;;;;;22.98;12.00;;;;;;;2.67;69.43;100255.16;4946724;28;20046;-90
2023/03/03 03:41:21;;;;;;;21.35;10.57;;;;;;;2.60;69.18;100251.97;4961559;28;20112;-89
2023/03/03 03:43:48;;;;;;;24.02;11.07;;;;;;;2.58;69.23;100259.06;4951574;28;20066;-89
2023/03/03 03:46:15;;;;;;;25.15;12.13;;;;;;;2.52;69.51;100256.75;4958546;28;20051;-89
2023/03/03 03:48:42;;;;;;;28.08;11.43;;;;;;;2.51;69.17;100252.41;4960297;28;20062;-88
2023/03/03 03:51:12;;;;;;;22.42;10.60;;;;;;;2.52;69.14;100266.34;4947744;28;20412;-86
2023/03/03 03:53:39;;;;;;;21.38;11.13;;;;;;;2.59;69.29;100278.25;4960006;28;20043;-90
2023/03/03 03:56:07;;;;;;;26.30;10.95;;;;;;;2.57;69.37;100274.84;4934825;28;20062;-90
2023/03/03 03:58:33;;;;;;;22.67;12.00;;;;;;;2.56;69.18;100265.31;4931940;28;20074;-89
2023/03/03 04:01:05;;;;;;;22.27;10.80;;;;;;;2.46;69.51;100267.50;4951282;28;20057;-89
2023/03/03 04:03:35;;;;;;;27.42;11.45;;;;;;;2.46;69.22;100264.03;4938319;28;20050;-90
2023/03/03 04:06:06;;;;;;;41.70;18.00;;;;;;;2.41;69.01;100266.03;4960593;28;20146;-90
2023/03/03 04:08:33;;;;;;;65.22;24.23;;;;;;;2.44;69.21;100271.97;4947398;28;21105;-90
2023/03/03 04:11:01;;;;;;;46.00;18.67;;;;;;;2.50;69.11;100266.44;4930390;28;20588;-91
2023/03/03 04:13:30;;;;;;;49.38;20.05;;;;;;;2.58;69.00;100281.81;4935091;28;20062;-91
2023/03/03 04:15:58;;;;;;;40.88;16.27;;;;;;;2.50;69.02;100279.56;4948524;28;20562;-90
2023/03/03 04:18:26;;;;;;;28.90;13.77;;;;;;;2.53;69.07;100274.16;4932705;28;20668;-89
2023/03/03 04:20:53;;;;;;;27.98;14.18;;;;;;;2.51;69.12;100277.78;4933690;28;20061;-91
2023/03/03 04:23:20;;;;;;;28.88;13.65;;;;;;;2.40;69.33;100280.91;4958589;28;20122;-90
2023/03/03 04:25:48;;;;;;;25.90;12.90;;;;;;;2.42;69.36;100278.22;4931758;28;20060;-91
2023/03/03 04:28:16;;;;;;;24.83;11.48;;;;;;;2.36;69.32;100269.72;4937875;28;20053;-91
2023/03/03 04:30:43;;;;;;;26.17;12.65;;;;;;;2.39;69.38;100271.34;4946368;28;20047;-90
2023/03/03 04:33:12;;;;;;;23.02;11.00;;;;;;;2.43;69.28;100274.69;4949141;28;20047;-89
2023/03/03 04:35:40;;;;;;;26.35;12.52;;;;;;;2.39;69.27;100272.22;4960138;28;20050;-88
2023/03/03 04:38:07;;;;;;;26.65;11.63;;;;;;;2.32;69.39;100269.97;4937937;28;20047;-89
2023/03/03 04:40:35;;;;;;;23.17;11.98;;;;;;;2.31;69.55;100271.72;4943343;28;20042;-88
2023/03/03 04:43:03;;;;;;;25.05;11.43;;;;;;;2.33;69.22;100269.03;4946540;28;20042;-91
2023/03/03 04:45:30;;;;;;;23.88;11.90;;;;;;;2.31;69.49;100274.31;4927526;28;20046;-89
2023/03/03 04:47:57;;;;;;;24.95;12.35;;;;;;;2.26;69.33;100280.72;4943890;28;20046;-90
2023/03/03 04:50:24;;;;;;;24.88;12.07;;;;;;;2.27;69.52;100280.66;4932552;28;20076;-90
2023/03/03 04:52:52;;;;;;;27.70;12.00;;;;;;;2.20;69.73;100281.00;4946355;28;20070;-91
2023/03/03 04:55:19;;;;;;;22.02;11.32;;;;;;;2.11;69.68;100285.75;4949933;28;20461;-90
2023/03/03 04:57:47;;;;;;;23.95;10.88;;;;;;;2.12;70.05;100286.59;4930151;28;20047;-90
2023/03/03 05:00:14;;;;;;;23.42;11.23;;;;;;;2.19;69.74;100288.03;4939240;28;20056;-91
2023/03/03 05:02:41;;;;;;;24.73;11.60;;;;;;;2.21;69.56;100294.03;4931557;28;20065;-91
2023/03/03 05:05:09;;;;;;;22.20;9.95;;;;;;;2.15;69.46;100289.94;4949688;28;20058;-91
2023/03/03 05:07:36;;;;;;;24.23;11.02;;;;;;;2.11;69.67;100292.75;4959683;28;20431;-90
2023/03/03 05:10:03;;;;;;;29.75;11.45;;;;;;;2.07;69.90;100292.06;4926454;28;20058;-88
2023/03/03 05:12:30;;;;;;;19.83;10.23;;;;;;;2.09;69.33;100289.38;4927378;28;20046;-90
2023/03/03 05:14:56;;;;;;;26.90;12.05;;;;;;;2.05;69.56;100290.44;4948592;28;20450;-89
2023/03/03 05:17:23;;;;;;;19.73;9.35;;;;;;;2.03;69.60;100294.88;4936154;28;20136;-89
2023/03/03 05:19:50;;;;;;;19.00;9.63;;;;;;;2.10;69.48;100289.28;4949751;28;20045;-91
2023/03/03 05:22:17;;;;;;;25.13;11.10;;;;;;;2.09;69.64;100294.63;4948781;28;20054;-90
2023/03/03 05:24:47;;;;;;;22.90;10.98;;;;;;;2.09;69.91;100297.22;4951874;28;20039;-90
2023/03/03 05:27:15;;;;;;;31.10;12.00;;;;;;;2.06;69.99;100298.22;4959291;28;20054;-90
2023/03/03 05:29:42;;;;;;;26.05;12.77;;;;;;;2.06;69.68;100303.47;4940964;28;20038;-90
2023/03/03 05:32:09;;;;;;;27.92;14.10;;;;;;;2.03;69.67;100305.34;4964457;28;20045;-90
2023/03/03 05:34:35;;;;;;;25.77;13.57;;;;;;;2.05;69.87;100314.00;4952112;28;21611;-85
2023/03/03 05:37:02;;;;;;;26.70;13.77;;;;;;;1.99;69.84;100314.28;4971896;28;20498;-86
2023/03/03 05:39:29;;;;;;;29.05;13.45;;;;;;;1.93;69.90;100312.78;4948202;28;20121;-84
2023/03/03 05:41:56;;;;;;;28.40;13.98;;;;;;;2.00;69.58;100315.97;4974960;28;20054;-84
2023/03/03 05:44:22;;;;;;;32.58;13.45;;;;;;;1.94;70.00;100317.13;4972622;28;20145;-84
2023/03/03 05:46:49;;;;;;;24.75;12.90;;;;;;;2.00;70.16;100313.34;4956137;28;20487;-84
2023/03/03 05:49:16;;;;;;;34.30;13.82;;;;;;;1.97;69.72;100313.50;4972456;28;20034;-85
2023/03/03 05:51:43;;;;;;;25.92;11.55;;;;;;;1.84;69.83;100319.28;4957980;28;20038;-84
2023/03/03 05:54:09;;;;;;;36.47;12.88;;;;;;;1.85;70.27;100327.97;4943552;28;20046;-85
2023/03/03 05:56:36;;;;;;;24.02;11.32;;;;;;;1.87;70.37;100324.38;4932648;28;20097;-84
2023/03/03 05:59:03;;;;;;;24.52;11.25;;;;;;;1.91;70.02;100330.34;4947635;28;20402;-85
2023/03/03 06:01:29;;;;;;;21.73;11.02;;;;;;;1.87;70.15;100324.38;4960666;28;20045;-84
2023/03/03 06:03:56;;;;;;;25.48;11.18;;;;;;;1.93;70.08;100334.59;4976070;28;20046;-84
2023/03/03 06:06:23;;;;;;;19.60;10.05;;;;;;;1.98;70.23;100330.91;4960218;28;20046;-84
2023/03/03 06:08:50;;;;;;;24.50;11.25;;;;;;;1.83;70.12;100335.06;4976799;28;20051;-83
2023/03/03 06:11:18;;;;;;;17.48;10.20;;;;;;;1.75;70.34;100345.88;4965074;28;20062;-83
2023/03/03 06:13:45;;;;;;;22.35;11.10;;;;;;;1.97;69.59;100334.47;4931978;28;20043;-83
2023/03/03 06:16:12;;;;;;;19.90;10.23;;;;;;;1.94;69.55;100345.91;4941456;28;20483;-83
2023/03/03 06:18:38;;;;;;;25.20;10.40;;;;;;;1.89;69.69;100345.28;4970876;28;20101;-84
2023/03/03 06:21:05;;;;;;;18.10;9.57;;;;;;;1.85;70.13;100346.31;4958484;28;20089;-84
2023/03/03 06:23:32;;;;;;;19.00;9.77;;;;;;;1.81;70.35;100347.38;4960661;28;20065;-83
2023/03/03 06:25:59;;;;;;;20.98;9.90;;;;;;;1.79;70.41;100349.22;4959748;28;20050;-83
2023/03/03 06:28:27;;;;;;;22.13;10.20;;;;;;;1.88;70.23;100348.78;4978121;28;20093;-83
2023/03/03 06:30:54;;;;;;;20.58;10.13;;;;;;;1.93;69.93;100358.16;4973861;28;20413;-83
2023/03/03 06:33:21;;;;;;;26.17;11.43;;;;;;;1.84;69.95;100360.34;4947730;28;20055;-84
2023/03/03 06:35:53;;;;;;;24.38;10.15;;;;;;;1.86;69.86;100359.34;4965476;28;20070;-84
2023/03/03 06:38:20;;;;;;;26.23;10.77;;;;;;;1.94;69.53;100366.88;4960342;28;20070;-83
2023/03/03 06:40:46;;;;;;;24.40;10.70;;;;;;;1.81;70.27;100363.94;4959011;28;20034;-83
2023/03/03 06:43:13;;;;;;;24.55;11.52;;;;;;;1.88;69.94;100372.34;4962048;28;20121;-84
2023/03/03 06:45:40;;;;;;;28.80;11.98;;;;;;;2.00;69.21;100365.75;4950041;28;20454;-84
2023/03/03 06:48:07;;;;;;;26.35;12.32;;;;;;;2.01;69.15;100380.53;4943781;28;20149;-83
2023/03/03 06:50:33;;;;;;;27.40;12.27;;;;;;;1.99;69.19;100378.00;4962820;28;20046;-83
2023/03/03 06:53:20;;;;;;;25.40;11.55;;;;;;;2.01;68.76;100380.53;4961690;28;20039;-83
2023/03/03 06:55:47;;;;;;;23.58;12.15;;;;;;;2.03;68.74;100387.41;4975791;28;20050;-83
2023/03/03 06:58:21;;;;;;;24.92;11.68;;;;;;;2.07;69.20;100390.75;4961849;28;20043;-84
2023/03/03 07:00:55;;;;;;;27.33;11.43;;;;;;;2.10;68.82;100398.47;4973494;28;20050;-84
2023/03/03 07:03:24;;;;;;;27.40;11.52;;;;;;;2.07;68.71;100396.00;4983155;28;20089;-83
2023/03/03 07:05:52;;;;;;;39.42;16.92;;;;;;;2.11;68.83;100405.41;4960407;28;20093;-83
2023/03/03 07:08:21;;;;;;;29.08;12.43;;;;;;;2.07;69.07;100403.84;4943330;28;20081;-83
2023/03/03 07:10:49;;;;;;;26.42;13.73;;;;;;;1.98;70.11;100405.09;4968075;28;20057;-84
2023/03/03 07:13:25;;;;;;;30.30;12.23;;;;;;;2.14;69.18;100410.53;4969515;28;20053;-83
2023/03/03 07:15:54;;;;;;;28.20;12.88;;;;;;;2.18;69.42;100412.06;4944704;28;20137;-83
2023/03/03 07:18:38;;;;;;;23.38;11.57;;;;;;;1.97;69.51;100419.13;4947836;28;20082;-84
2023/03/03 07:21:20;;;;;;;27.75;12.25;;;;;;;2.10;69.63;100412.41;4999779;28;20121;-83
2023/03/03 07:23:49;;;;;;;26.83;12.98;;;;;;;2.17;70.15;100411.22;4967313;28;20046;-84
2023/03/03 07:26:27;;;;;;;28.88;13.07;;;;;;;2.13;70.56;100414.03;4960980;28;20159;-85
2023/03/03 07:28:57;;;;;;;26.92;12.95;;;;;;;2.29;70.27;100414.19;4948232;28;20109;-84
2023/03/03 07:31:34;;;;;;;26.77;12.63;;;;;;;2.29;69.79;100415.06;4968347;28;20058;-84
2023/03/03 07:34:01;;;;;;;30.50;12.18;;;;;;;2.32;70.30;100412.31;4959203;28;20046;-85
2023/03/03 07:36:34;;;;;;;25.45;12.27;;;;;;;2.25;70.14;100415.28;4939745;28;20114;-84
2023/03/03 07:39:36;;;;;;;25.55;12.57;;;;;;;2.20;70.15;100410.25;4974588;28;20049;-85
2023/03/03 07:42:27;;;;;;;26.13;12.25;;;;;;;2.30;70.25;100408.06;4942284;28;20473;-84
2023/03/03 07:45:36;;;;;;;28.00;11.93;;;;;;;2.33;70.50;100405.28;4927569;28;20096;-84
2023/03/03 07:48:12;;;;;;;24.02;12.57;;;;;;;2.39;70.60;100405.88;4967153;28;22559;-84
2023/03/03 07:50:40;;;;;;;27.90;12.27;;;;;;;2.48;70.46;100411.63;4946932;28;20388;-85
2023/03/03 07:53:28;;;;;;;32.47;12.63;;;;;;;2.51;70.66;100407.06;4965194;28;20406;-84
2023/03/03 07:55:55;;;;;;;27.05;12.90;;;;;;;2.60;69.92;100403.19;4993836;28;20054;-83
2023/03/03 07:58:33;;;;;;;26.63;12.82;;;;;;;2.63;69.96;100413.53;4975579;28;20078;-85
2023/03/03 08:01:38;;;;;;;28.10;12.55;;;;;;;2.57;70.67;100409.44;4974383;28;20050;-84
2023/03/03 08:04:14;;;;;;;28.25;12.60;;;;;;;2.73;69.90;100420.06;4948146;28;20047;-84
2023/03/03 08:06:55;;;;;;;30.55;12.98;;;;;;;2.66;70.13;100423.88;4971122;28;20051;-84
2023/03/03 08:09:42;;;;;;;30.90;13.45;;;;;;;2.75;69.74;100426.06;4959110;28;20051;-84
2023/03/03 08:12:15;;;;;;;32.63;12.82;;;;;;;2.81;69.71;100428.41;4965648;28;20435;-84
2023/03/03 08:14:42;;;;;;;;;;;;;;;2.80;70.15;100431.13;4976026;28;20038;-83
2023/03/03 08:17:19;;;;;;;36.83;14.25;;;;;;;2.90;69.58;100427.13;4961901;28;20045;-83
2023/03/03 08:19:47;;;;;;;24.73;13.45;;;;;;;3.01;69.25;100429.25;4940080;28;20043;-83
2023/03/03 08:22:19;;;;;;;29.90;14.02;;;;;;;3.04;69.63;100437.81;4961563;28;20038;-83
2023/03/03 08:24:45;;;;;;;32.03;13.15;;;;;;;3.01;69.51;100434.50;4972906;28;20529;-82
2023/03/03 08:27:12;;;;;;;28.67;14.25;;;;;;;3.14;69.16;100438.22;4962357;28;20054;-82
2023/03/03 08:29:39;;;;;;;28.73;13.23;;;;;;;3.22;69.67;100433.44;4975023;28;20085;-82
2023/03/03 08:32:05;;;;;;;27.38;13.65;;;;;;;3.29;69.58;100434.00;4972399;28;20105;-82
2023/03/03 08:34:32;;;;;;;38.10;14.63;;;;;;;3.36;69.37;100422.28;4959885;28;20054;-83
2023/03/03 08:36:59;;;;;;;31.60;13.98;;;;;;;3.44;69.40;100427.16;4960868;28;20407;-81
2023/03/03 08:39:26;;;;;;;38.03;15.82;;;;;;;3.54;69.09;100419.69;4956477;28;20517;-83
2023/03/03 08:41:52;;;;;;;35.15;15.02;;;;;;;3.66;68.82;100421.66;4963572;28;20050;-82
2023/03/03 08:44:19;;;;;;;43.63;17.95;;;;;;;3.72;67.85;100429.25;4949392;28;20045;-82
2023/03/03 08:46:46;;;;;;;44.13;18.85;;;;;;;3.77;67.03;100423.78;4964419;28;20458;-82
2023/03/03 08:49:13;;;;;;;44.42;18.48;;;;;;;3.88;67.04;100418.81;4944051;28;20046;-81
2023/03/03 08:51:40;;;;;;;46.42;20.13;;;;;;;3.92;66.66;100418.59;4971697;28;20434;-81
2023/03/03 08:54:06;;;;;;;47.30;19.58;;;;;;;3.92;66.51;100431.72;4946951;28;20043;-80
2023/03/03 08:56:33;;;;;;;43.40;19.50;;;;;;;4.00;66.51;100425.22;4961416;28;20164;-80
2023/03/03 08:59:00;;;;;;;42.47;18.05;;;;;;;4.07;66.36;100423.94;4981282;28;20069;-81
2023/03/03 09:01:32;;;;;;;45.20;19.02;;;;;;;4.08;66.25;100431.78;4960073;28;20050;-81
2023/03/03 09:03:58;;;;;;;44.72;19.63;;;;;;;4.12;66.32;100424.56;4977154;28;20054;-83
2023/03/03 09:06:25;;;;;;;50.10;20.00;;;;;;;4.18;66.02;100426.88;4947577;28;20056;-81
2023/03/03 09:08:53;;;;;;;47.63;19.08;;;;;;;4.12;65.91;100425.44;4971437;28;20102;-81
2023/03/03 09:11:26;;;;;;;50.33;20.08;;;;;;;4.18;66.04;100424.25;4949678;28;20039;-81
2023/03/03 09:14:14;;;;;;;45.50;20.17;;;;;;;4.19;65.83;100431.22;4973871;28;20050;-81
2023/03/03 09:16:51;;;;;;;42.92;18.92;;;;;;;4.29;66.05;100428.94;4977482;28;20525;-81
2023/03/03 09:19:23;;;;;;;47.10;19.48;;;;;;;4.31;66.11;100427.09;4969810;28;20047;-81
2023/03/03 09:21:55;;;;;;;48.07;20.73;;;;;;;4.35;66.08;100429.47;4958983;28;20753;-82
2023/03/03 09:24:35;;;;;;;43.88;19.70;;;;;;;4.38;65.92;100422.38;4970723;28;20047;-82
2023/03/03 09:27:01;;;;;;;45.03;18.63;;;;;;;4.47;65.81;100433.22;4962676;28;20457;-82
2023/03/03 09:29:30;;;;;;;52.35;20.15;;;;;;;4.52;65.60;100430.34;4943755;28;20034;-82
2023/03/03 09:31:59;;;;;;;51.83;20.77;;;;;;;4.59;65.93;100428.25;4975867;28;21161;-82
2023/03/03 09:34:53;;;;;;;56.13;21.75;;;;;;;4.60;65.15;100429.94;4972415;28;20069;-81
2023/03/03 09:37:33;;;;;;;44.70;20.23;;;;;;;4.66;65.76;100425.19;4887480;28;20546;-81
2023/03/03 09:39:59;;;;;;;47.53;20.15;;;;;;;4.70;65.25;100424.09;4971945;28;20053;-81
2023/03/03 09:42:32;;;;;;;45.72;20.70;;;;;;;4.70;65.25;100426.72;4970865;28;20126;-82
2023/03/03 09:45:05;;;;;;;41.60;19.65;;;;;;;4.74;64.98;100427.41;4978840;28;22433;-81
2023/03/03 09:47:56;;;;;;;51.80;20.92;;;;;;;4.79;64.84;100428.00;4969788;28;20557;-82
2023/03/03 09:50:35;;;;;;;51.67;20.60;;;;;;;4.79;65.28;100426.22;4985357;28;20070;-82
2023/03/03 09:53:26;;;;;;;45.50;20.52;;;;;;;4.84;64.95;100430.41;4985186;28;20061;-81
2023/03/03 09:56:00;;;;;;;44.10;19.05;;;;;;;4.93;64.85;100427.22;4979278;28;20034;-82
2023/03/03 09:58:51;;;;;;;44.45;20.27;;;;;;;4.87;64.63;100424.97;4981116;28;20050;-82
2023/03/03 10:01:47;;;;;;;52.00;20.48;;;;;;;4.92;64.63;100438.72;4970571;28;20123;-82
2023/03/03 10:04:52;;;;;;;43.03;19.17;;;;;;;4.96;64.09;100435.81;4941911;28;20622;-80
2023/03/03 10:07:26;;;;;;;45.83;19.38;;;;;;;4.98;63.77;100427.81;4969438;28;20102;-79
2023/03/03 10:10:29;;;;;;;44.55;18.50;;;;;;;5.04;63.39;100426.63;4971802;28;20060;-80
2023/03/03 10:13:20;;;;;;;44.92;19.00;;;;;;;5.10;64.15;100424.50;4928688;28;20086;-85
2023/03/03 10:16:10;;;;;;;39.75;18.88;;;;;;;5.12;64.34;100427.06;5004810;28;20567;-83
2023/03/03 10:18:40;;;;;;;42.47;19.30;;;;;;;5.18;64.41;100422.28;4964131;28;20510;-82
2023/03/03 10:21:10;;;;;;;42.45;18.58;;;;;;;5.18;63.89;100418.81;4982338;28;20050;-80
2023/03/03 10:23:47;;;;;;;42.00;19.65;;;;;;;5.22;63.77;100426.47;4983768;28;20042;-79
2023/03/03 10:35:20;;;;;;;46.25;20.13;;;;;;;5.31;64.04;100435.59;4835076;29;20096;-86
2023/03/03 10:38:30;;;;;;;46.80;19.85;;;;;;;5.39;64.01;100436.03;4695732;29;20126;-86
2023/03/03 10:41:40;;;;;;;42.42;18.95;;;;;;;5.46;63.90;100427.78;5038755;27;20687;-81
2023/03/03 10:44:24;;;;;;;48.40;19.50;;;;;;;5.47;63.51;100432.09;4991314;28;20128;-80
2023/03/03 10:47:04;;;;;;;44.47;19.63;;;;;;;5.53;63.99;100421.22;5016712;28;20081;-82
2023/03/03 10:49:46;;;;;;;39.65;18.90;;;;;;;5.57;63.94;100426.22;5045733;28;20073;-81
2023/03/03 10:52:25;;;;;;;47.10;20.67;;;;;;;5.63;64.04;100427.66;5030470;28;20041;-81
2023/03/03 10:55:22;;;;;;;38.88;17.58;;;;;;;5.62;62.67;100421.53;5036175;28;20123;-81
2023/03/03 10:58:07;;;;;;;43.72;19.33;;;;;;;5.66;63.34;100424.81;4993550;28;20056;-81
2023/03/03 11:00:59;;;;;;;40.65;17.50;;;;;;;5.68;62.73;100422.13;5025083;28;20487;-80
2023/03/03 11:03:26;;;;;;;43.50;19.25;;;;;;;5.77;62.89;100432.09;4990063;28;20072;-80
2023/03/03 11:06:14;;;;;;;41.17;19.38;;;;;;;5.73;61.88;100426.16;5049182;28;20055;-81
2023/03/03 11:09:09;;;;;;;45.00;20.70;;;;;;;5.77;62.25;100424.19;4981594;28;20037;-82
2023/03/03 11:11:58;;;;;;;36.22;18.08;;;;;;;5.79;62.37;100423.16;5047979;28;20051;-82
2023/03/03 11:14:46;;;;;;;47.60;20.08;;;;;;;5.86;62.91;100421.03;5043881;28;20048;-81
2023/03/03 11:18:23;;;;;;;44.00;20.15;;;;;;;5.89;62.86;100420.84;4824572;29;20218;-81
2023/03/03 11:20:55;;;;;;;42.72;18.85;;;;;;;5.94;63.05;100420.59;4874914;29;20048;-81
2023/03/03 11:23:46;;;;;;;40.10;18.42;;;;;;;5.97;62.66;100421.25;4922347;28;20506;-81
2023/03/03 11:26:22;;;;;;;41.20;19.48;;;;;;;6.00;62.38;100421.06;4876836;28;20047;-82
2023/03/03 11:29:23;;;;;;;42.65;18.55;;;;;;;6.02;62.12;100416.53;4889055;29;20056;-82
2023/03/03 11:31:55;;;;;;;46.33;20.75;;;;;;;6.11;62.20;100415.16;4843499;28;20131;-82
2023/03/03 11:34:24;;;;;;;38.20;17.77;;;;;;;6.12;62.02;100411.56;4905465;28;20063;-82
2023/03/03 11:36:55;;;;;;;40.55;19.08;;;;;;;6.17;61.82;100404.22;4911500;28;20222;-82
2023/03/03 11:39:26;;;;;;;42.30;20.40;;;;;;;6.19;61.79;100412.91;4913963;28;20051;-83
2023/03/03 11:41:59;;;;;;;40.38;19.52;;;;;;;6.23;62.00;100411.78;4916806;28;20067;-81
2023/03/03 11:44:29;;;;;;;;;;;;;;;6.20;60.72;100405.81;4908996;28;20044;-80
2023/03/03 11:46:59;;;;;;;44.35;19.10;;;;;;;6.26;61.43;100400.19;4935920;28;19927;-79
2023/03/03 11:49:49;;;;;;;40.42;20.63;;;;;;;6.27;60.82;100402.72;4989185;28;20055;-80
2023/03/03 11:52:54;;;;;;;39.58;17.63;;;;;;;6.31;61.01;100390.22;5007098;28;20132;-80